Time;durP1;ratioP1;P1;durP2;ratioP2;P2;SDS_P1;SDS_P2;PMS_P1;PMS_P2;Temp;Humidity;BMP_temperature;BMP_pressure;BME280_temperature;BME280_humidity;BME280_pressure;Samples;Min_cycle;Max_cycle;Signal;HPM_P1;HPM_P2
2023/07/13 00:00:03;;;;;;;10.90;3.55;;;;;;;;;;4975332;28;20051;-70
2023/07/13 00:02:28;;;;;;;9.82;3.70;;;;;;;;;;4974789;28;20117;-69
2023/07/13 00:04:54;;;;;;;11.10;4.03;;;;;;;;;;4976095;28;20154;-69
2023/07/13 00:07:23;;;;;;;16.30;4.70;;;;;;;;;;4976457;28;20118;-70
2023/07/13 00:09:49;;;;;;;12.05;3.88;;;;;;;;;;4974723;28;20031;-69
2023/07/13 00:12:35;;;;;;;13.32;3.78;;;;;;;;;;4976150;28;20077;-69
2023/07/13 00:15:07;;;;;;;10.25;3.50;;;;;;;;;;4975203;28;20524;-69
2023/07/13 00:17:32;;;;;;;8.48;3.00;;;;;;;;;;4976043;28;20031;-70
2023/07/13 00:19:58;;;;;;;7.07;3.33;;;;;;;;;;4975262;28;20529;-69
2023/07/13 00:22:25;;;;;;;8.73;3.63;;;;;;;;;;4975629;28;20450;-69
2023/07/13 00:24:52;;;;;;;6.72;3.30;;;;;;;;;;4975102;28;20041;-70
2023/07/13 00:27:17;;;;;;;11.45;3.42;;;;;;;;;;4974512;28;20471;-69
2023/07/13 00:29:43;;;;;;;7.22;3.13;;;;;;;;;;4973738;28;20042;-69
2023/07/13 00:32:09;;;;;;;13.25;3.40;;;;;;;;;;4974557;28;20081;-69
2023/07/13 00:34:34;;;;;;;7.25;3.10;;;;;;;;;;4973043;28;20101;-70
2023/07/13 00:37:00;;;;;;;7.63;3.45;;;;;;;;;;4975463;28;20043;-69
2023/07/13 00:39:25;;;;;;;8.20;3.45;;;;;;;;;;4974974;28;20121;-69
2023/07/13 00:41:51;;;;;;;9.90;3.35;;;;;;;;;;4975151;28;20042;-69
2023/07/13 00:44:18;;;;;;;10.32;3.40;;;;;;;;;;4973780;28;20055;-70
2023/07/13 00:46:43;;;;;;;6.55;3.20;;;;;;;;;;4974145;28;20037;-69
2023/07/13 00:49:12;;;;;;;12.15;3.22;;;;;;;;;;4975042;28;20031;-69
2023/07/13 00:51:44;;;;;;;10.85;3.60;;;;;;;;;;4973719;28;20050;-69
2023/07/13 00:54:13;;;;;;;6.95;3.30;;;;;;;;;;4973850;28;20045;-69
2023/07/13 00:56:40;;;;;;;19.98;3.90;;;;;;;;;;4973595;28;20054;-69
2023/07/13 00:59:07;;;;;;;7.15;3.25;;;;;;;;;;4963761;28;20031;-70
2023/07/13 01:01:32;;;;;;;10.52;3.88;;;;;;;;;;4982979;28;20055;-69
2023/07/13 01:03:57;;;;;;;12.20;3.78;;;;;;;;;;4973660;28;20093;-69
2023/07/13 01:06:23;;;;;;;11.70;3.70;;;;;;;;;;4973840;28;20035;-69
2023/07/13 01:08:48;;;;;;;10.55;3.67;;;;;;;;;;4974828;28;20033;-69
2023/07/13 01:11:18;;;;;;;8.48;3.78;;;;;;;;;;4974474;28;20483;-69
2023/07/13 01:13:44;;;;;;;11.68;3.88;;;;;;;;;;4974453;28;20034;-69
2023/07/13 01:16:20;;;;;;;12.43;4.40;;;;;;;;;;4974237;28;20113;-69
2023/07/13 01:18:46;;;;;;;7.82;3.15;;;;;;;;;;4973127;28;20049;-69
2023/07/13 01:21:11;;;;;;;9.35;4.20;;;;;;;;;;4974201;28;20122;-69
2023/07/13 01:23:36;;;;;;;12.77;4.15;;;;;;;;;;4974619;28;20130;-70
2023/07/13 01:26:02;;;;;;;6.78;3.53;;;;;;;;;;4974422;28;20046;-69
2023/07/13 01:28:28;;;;;;;14.10;3.92;;;;;;;;;;4974085;28;20034;-69
2023/07/13 01:30:55;;;;;;;7.63;4.00;;;;;;;;;;4971606;28;20047;-70
2023/07/13 01:33:20;;;;;;;13.07;3.95;;;;;;;;;;4974206;28;20496;-69
2023/07/13 01:35:46;;;;;;;11.80;3.75;;;;;;;;;;4974196;28;20037;-69
2023/07/13 01:38:15;;;;;;;10.18;3.65;;;;;;;;;;4974321;28;20050;-69
2023/07/13 01:40:40;;;;;;;8.13;3.15;;;;;;;;;;4973398;28;20049;-69
2023/07/13 01:43:06;;;;;;;12.98;4.63;;;;;;;;;;4974219;28;20034;-69
2023/07/13 01:45:32;;;;;;;6.30;3.03;;;;;;;;;;4974470;28;20050;-69
2023/07/13 01:47:57;;;;;;;14.35;4.38;;;;;;;;;;4974214;28;20039;-69
2023/07/13 01:50:23;;;;;;;9.48;3.63;;;;;;;;;;4974080;28;20398;-69
2023/07/13 01:52:49;;;;;;;10.68;3.33;;;;;;;;;;4974350;28;20074;-69
2023/07/13 01:55:14;;;;;;;10.30;3.33;;;;;;;;;;4973964;28;20039;-69
2023/07/13 01:57:39;;;;;;;10.77;3.60;;;;;;;;;;4973949;28;20042;-69
2023/07/13 02:00:06;;;;;;;8.60;4.03;;;;;;;;;;4973341;28;20038;-69
2023/07/13 02:02:32;;;;;;;12.35;4.03;;;;;;;;;;4973465;28;20486;-69
2023/07/13 02:04:57;;;;;;;14.07;4.00;;;;;;;;;;4974148;28;20031;-69
2023/07/13 02:07:23;;;;;;;12.07;3.38;;;;;;;;;;4974187;28;20061;-69
2023/07/13 02:09:48;;;;;;;12.70;3.58;;;;;;;;;;4974004;28;20118;-69
2023/07/13 02:12:13;;;;;;;12.93;3.63;;;;;;;;;;4973337;28;20455;-69
2023/07/13 02:14:38;;;;;;;16.33;3.97;;;;;;;;;;4973945;28;20567;-69
2023/07/13 02:17:05;;;;;;;10.60;4.05;;;;;;;;;;4974073;28;20551;-69
2023/07/13 02:19:30;;;;;;;12.05;3.92;;;;;;;;;;4972822;28;20031;-69
2023/07/13 02:21:55;;;;;;;5.72;3.38;;;;;;;;;;4973501;28;20455;-69
2023/07/13 02:24:21;;;;;;;9.40;3.25;;;;;;;;;;4973366;28;20051;-69
2023/07/13 02:26:46;;;;;;;8.65;3.10;;;;;;;;;;4974116;28;20054;-69
2023/07/13 02:29:12;;;;;;;9.50;3.25;;;;;;;;;;4973742;28;20118;-69
2023/07/13 02:31:37;;;;;;;14.02;3.83;;;;;;;;;;4974141;28;20149;-69
2023/07/13 02:34:03;;;;;;;9.45;3.95;;;;;;;;;;4976781;28;20456;-69
2023/07/13 02:36:30;;;;;;;9.35;3.30;;;;;;;;;;4977518;28;20046;-69
2023/07/13 02:38:55;;;;;;;10.82;3.50;;;;;;;;;;4977082;28;20045;-69
2023/07/13 02:41:20;;;;;;;12.57;3.53;;;;;;;;;;4976325;28;20039;-69
2023/07/13 02:43:46;;;;;;;11.68;3.88;;;;;;;;;;4977224;28;20042;-69
2023/07/13 02:46:11;;;;;;;7.40;3.22;;;;;;;;;;4977622;28;20062;-69
2023/07/13 02:48:38;;;;;;;10.05;3.58;;;;;;;;;;4977160;28;20030;-69
2023/07/13 02:51:03;;;;;;;11.23;3.60;;;;;;;;;;4977051;28;20398;-69
2023/07/13 02:53:29;;;;;;;13.45;4.05;;;;;;;;;;4977118;28;20046;-69
2023/07/13 02:55:54;;;;;;;8.57;3.50;;;;;;;;;;4976064;28;20116;-70
2023/07/13 02:58:20;;;;;;;10.07;3.65;;;;;;;;;;4976933;28;20113;-70
2023/07/13 03:00:47;;;;;;;7.82;3.47;;;;;;;;;;5007579;28;20046;-69
2023/07/13 03:03:13;;;;;;;11.30;3.60;;;;;;;;;;4976173;28;20034;-69
2023/07/13 03:05:41;;;;;;;16.33;3.88;;;;;;;;;;4977343;28;20043;-69
2023/07/13 03:08:07;;;;;;;13.80;3.85;;;;;;;;;;4973874;28;20145;-69
2023/07/13 03:10:33;;;;;;;14.43;3.95;;;;;;;;;;4976869;28;20146;-69
2023/07/13 03:12:58;;;;;;;10.98;3.72;;;;;;;;;;4976830;28;20055;-69
2023/07/13 03:15:23;;;;;;;13.10;3.63;;;;;;;;;;4976662;28;20050;-69
2023/07/13 03:17:49;;;;;;;9.00;3.80;;;;;;;;;;4976828;28;20041;-69
2023/07/13 03:20:14;;;;;;;9.38;3.40;;;;;;;;;;4976498;28;20046;-69
2023/07/13 03:22:40;;;;;;;11.68;4.05;;;;;;;;;;4977010;28;20062;-69
2023/07/13 03:25:05;;;;;;;12.10;4.03;;;;;;;;;;4976531;28;20030;-69
2023/07/13 03:27:31;;;;;;;15.07;3.63;;;;;;;;;;4976608;28;20053;-69
2023/07/13 03:29:56;;;;;;;8.70;3.28;;;;;;;;;;4976284;28;20038;-69
2023/07/13 03:32:21;;;;;;;8.30;3.30;;;;;;;;;;4975464;28;20085;-69
2023/07/13 03:34:47;;;;;;;10.60;3.60;;;;;;;;;;4976367;28;20094;-69
2023/07/13 03:37:12;;;;;;;10.40;3.80;;;;;;;;;;4976731;28;20085;-69
2023/07/13 03:39:37;;;;;;;14.10;3.65;;;;;;;;;;4976293;28;20034;-69
2023/07/13 03:42:03;;;;;;;10.60;3.65;;;;;;;;;;4976181;28;20094;-69
2023/07/13 03:44:29;;;;;;;10.55;3.65;;;;;;;;;;4976264;28;20070;-69
2023/07/13 03:46:54;;;;;;;11.98;3.33;;;;;;;;;;4976131;28;20039;-69
2023/07/13 03:49:19;;;;;;;12.90;3.80;;;;;;;;;;4976095;28;20049;-69
2023/07/13 03:51:45;;;;;;;11.43;3.95;;;;;;;;;;4975873;28;20130;-69
2023/07/13 03:54:10;;;;;;;11.35;3.50;;;;;;;;;;4975122;28;20038;-69
2023/07/13 03:56:35;;;;;;;11.90;3.45;;;;;;;;;;4976039;28;20049;-69
2023/07/13 03:59:02;;;;;;;9.98;3.78;;;;;;;;;;4975932;28;20038;-69
2023/07/13 04:01:27;;;;;;;8.40;3.25;;;;;;;;;;4975973;28;20112;-69
2023/07/13 04:03:53;;;;;;;9.43;3.42;;;;;;;;;;4974678;28;20491;-69
2023/07/13 04:06:21;;;;;;;9.25;3.47;;;;;;;;;;4974914;28;20039;-69
2023/07/13 04:08:49;;;;;;;8.50;3.13;;;;;;;;;;4975823;28;20086;-69
2023/07/13 04:11:14;;;;;;;9.15;3.38;;;;;;;;;;4975942;28;20047;-69
2023/07/13 04:13:39;;;;;;;12.57;3.33;;;;;;;;;;4975753;28;20042;-69
2023/07/13 04:16:04;;;;;;;9.05;3.10;;;;;;;;;;4975669;28;20039;-69
2023/07/13 04:18:30;;;;;;;13.68;3.50;;;;;;;;;;4975217;28;20041;-69
2023/07/13 04:20:55;;;;;;;6.03;2.90;;;;;;;;;;4974387;28;20049;-69
2023/07/13 04:23:21;;;;;;;13.38;3.58;;;;;;;;;;4975054;28;20085;-70
2023/07/13 04:25:49;;;;;;;12.20;3.25;;;;;;;;;;4974430;28;20066;-69
2023/07/13 04:28:15;;;;;;;11.65;3.58;;;;;;;;;;4974279;28;20046;-69
2023/07/13 04:30:40;;;;;;;12.90;3.60;;;;;;;;;;4975165;28;20034;-69
2023/07/13 04:33:05;;;;;;;14.73;3.20;;;;;;;;;;4974891;28;20065;-69
2023/07/13 04:35:31;;;;;;;10.75;3.72;;;;;;;;;;4975654;28;20077;-69
2023/07/13 04:37:56;;;;;;;7.18;3.60;;;;;;;;;;4975302;28;20030;-69
2023/07/13 04:40:22;;;;;;;9.52;3.97;;;;;;;;;;4975231;28;20046;-69
2023/07/13 04:42:47;;;;;;;9.80;3.30;;;;;;;;;;4975373;28;20058;-69
2023/07/13 04:45:14;;;;;;;11.30;3.33;;;;;;;;;;4975123;28;20038;-69
2023/07/13 04:47:39;;;;;;;16.13;4.10;;;;;;;;;;4975180;28;20068;-69
2023/07/13 04:50:06;;;;;;;10.90;3.40;;;;;;;;;;4975134;28;20430;-69
2023/07/13 04:52:32;;;;;;;9.95;3.42;;;;;;;;;;4974723;28;20042;-69
2023/07/13 04:54:58;;;;;;;10.57;3.40;;;;;;;;;;4974629;28;20075;-70
2023/07/13 04:57:24;;;;;;;10.75;3.22;;;;;;;;;;4975092;28;20066;-69
2023/07/13 04:59:49;;;;;;;6.38;3.08;;;;;;;;;;4974431;28;20047;-69
2023/07/13 05:02:14;;;;;;;13.50;3.40;;;;;;;;;;4974954;28;20043;-69
2023/07/13 05:04:40;;;;;;;10.35;3.22;;;;;;;;;;4974659;28;20045;-69
2023/07/13 05:07:06;;;;;;;4.72;2.83;;;;;;;;;;4975042;28;20046;-69
2023/07/13 05:09:31;;;;;;;10.98;2.95;;;;;;;;;;4974550;28;20039;-69
2023/07/13 05:11:56;;;;;;;8.32;3.22;;;;;;;;;;4974919;28;20043;-69
2023/07/13 05:14:22;;;;;;;8.60;3.13;;;;;;;;;;4974229;28;20023;-69
2023/07/13 05:16:47;;;;;;;8.13;3.05;;;;;;;;;;4974806;28;20388;-69
2023/07/13 05:19:12;;;;;;;6.43;3.08;;;;;;;;;;4974482;28;20046;-70
2023/07/13 05:21:37;;;;;;;8.88;3.17;;;;;;;;;;4974488;28;20042;-69
2023/07/13 05:24:03;;;;;;;5.70;2.80;;;;;;;;;;4974629;28;20046;-69
2023/07/13 05:26:28;;;;;;;9.10;2.92;;;;;;;;;;4974701;28;20471;-69
2023/07/13 05:28:54;;;;;;;6.63;2.90;;;;;;;;;;4973373;28;20431;-69
2023/07/13 05:31:20;;;;;;;10.13;2.97;;;;;;;;;;4974238;28;20038;-69
2023/07/13 05:33:45;;;;;;;6.88;2.85;;;;;;;;;;4974353;28;20126;-69
2023/07/13 05:36:10;;;;;;;10.02;3.20;;;;;;;;;;4974188;28;20039;-70
2023/07/13 05:38:36;;;;;;;10.07;3.40;;;;;;;;;;4973295;28;20038;-69
2023/07/13 05:41:01;;;;;;;11.57;3.83;;;;;;;;;;4974391;28;20051;-69
2023/07/13 05:43:26;;;;;;;9.68;3.53;;;;;;;;;;4972939;28;20117;-69
2023/07/13 05:45:56;;;;;;;9.40;3.13;;;;;;;;;;4974583;28;20050;-69
2023/07/13 05:48:21;;;;;;;11.75;3.50;;;;;;;;;;4974047;28;20113;-69
2023/07/13 05:50:47;;;;;;;8.88;2.95;;;;;;;;;;4972878;28;20154;-69
2023/07/13 05:53:12;;;;;;;12.48;3.60;;;;;;;;;;4974095;28;20494;-69
2023/07/13 05:55:47;;;;;;;12.05;3.60;;;;;;;;;;4974506;28;20399;-69
2023/07/13 05:58:12;;;;;;;9.05;3.90;;;;;;;;;;4973938;28;20034;-69
2023/07/13 06:00:38;;;;;;;12.10;3.67;;;;;;;;;;4973818;28;20051;-69
2023/07/13 06:03:03;;;;;;;12.27;3.63;;;;;;;;;;4973995;28;20081;-69
2023/07/13 06:05:28;;;;;;;9.68;3.65;;;;;;;;;;4973895;28;20042;-69
2023/07/13 06:07:54;;;;;;;6.78;3.20;;;;;;;;;;4975455;28;20133;-70
2023/07/13 06:10:20;;;;;;;15.45;3.30;;;;;;;;;;4977894;28;20062;-69
2023/07/13 06:12:45;;;;;;;10.05;3.00;;;;;;;;;;4960825;28;20384;-69
2023/07/13 06:15:10;;;;;;;6.82;2.80;;;;;;;;;;4977528;28;20039;-70
2023/07/13 06:17:36;;;;;;;7.63;3.05;;;;;;;;;;4978209;28;20117;-69
2023/07/13 06:20:01;;;;;;;9.73;2.40;;;;;;;;;;4977311;28;20113;-69
2023/07/13 06:22:27;;;;;;;7.07;2.78;;;;;;;;;;4976570;28;20043;-69
2023/07/13 06:24:52;;;;;;;5.55;3.38;;;;;;;;;;4976387;28;20534;-69
2023/07/13 06:27:17;;;;;;;8.52;4.13;;;;;;;;;;4977864;28;20054;-70
2023/07/13 06:29:44;;;;;;;7.97;2.72;;;;;;;;;;4976464;28;20049;-69
2023/07/13 06:32:10;;;;;;;9.52;3.08;;;;;;;;;;4976391;28;20450;-69
2023/07/13 06:34:35;;;;;;;11.77;3.30;;;;;;;;;;5004936;28;20062;-69
2023/07/13 06:37:01;;;;;;;7.80;3.38;;;;;;;;;;4977379;28;20430;-69
2023/07/13 06:39:26;;;;;;;8.60;3.75;;;;;;;;;;4977306;28;20387;-69
2023/07/13 06:41:51;;;;;;;12.52;3.53;;;;;;;;;;4977797;28;20512;-69
2023/07/13 06:44:17;;;;;;;7.22;3.60;;;;;;;;;;4976893;28;20113;-70
2023/07/13 06:46:42;;;;;;;6.72;3.35;;;;;;;;;;4977534;28;20065;-70
2023/07/13 06:49:09;;;;;;;11.38;3.50;;;;;;;;;;4977524;28;20059;-69
2023/07/13 06:51:34;;;;;;;9.20;3.08;;;;;;;;;;4975376;28;20050;-70
2023/07/13 06:53:59;;;;;;;5.88;2.95;;;;;;;;;;4976445;28;20060;-70
2023/07/13 06:56:25;;;;;;;7.45;2.90;;;;;;;;;;4977421;28;20027;-69
2023/07/13 06:58:50;;;;;;;9.52;3.08;;;;;;;;;;4977312;28;20478;-70
2023/07/13 07:01:15;;;;;;;4.80;2.50;;;;;;;;;;4975054;28;20051;-70
2023/07/13 07:03:41;;;;;;;7.85;2.83;;;;;;;;;;4975998;28;20133;-69
2023/07/13 07:06:14;;;;;;;7.45;2.67;;;;;;;;;;4975728;28;20117;-70
2023/07/13 07:08:40;;;;;;;6.68;2.92;;;;;;;;;;4973297;28;20368;-69
2023/07/13 07:11:07;;;;;;;7.25;2.58;;;;;;;;;;4973182;28;20038;-69
2023/07/13 07:13:33;;;;;;;4.38;2.40;;;;;;;;;;5007282;28;20470;-69
2023/07/13 07:16:00;;;;;;;7.35;3.20;;;;;;;;;;4975585;28;20042;-69
2023/07/13 07:18:25;;;;;;;6.82;3.40;;;;;;;;;;4974667;28;20443;-69
2023/07/13 07:20:50;;;;;;;11.73;3.22;;;;;;;;;;4975082;28;20067;-69
2023/07/13 07:23:15;;;;;;;9.90;3.45;;;;;;;;;;4975515;28;20035;-70
2023/07/13 07:25:43;;;;;;;10.45;3.00;;;;;;;;;;4975899;28;20046;-70
2023/07/13 07:28:09;;;;;;;9.10;3.28;;;;;;;;;;4974748;28;20574;-70
2023/07/13 07:30:35;;;;;;;5.68;3.28;;;;;;;;;;4975319;28;20121;-70
2023/07/13 07:33:01;;;;;;;4.60;3.08;;;;;;;;;;4975789;28;20034;-70
2023/07/13 07:35:26;;;;;;;9.90;3.40;;;;;;;;;;4975518;28;20053;-70
2023/07/13 07:37:51;;;;;;;8.88;3.05;;;;;;;;;;4975393;28;20368;-70
2023/07/13 07:40:18;;;;;;;9.18;3.08;;;;;;;;;;4975943;28;20431;-70
2023/07/13 07:42:43;;;;;;;6.60;3.00;;;;;;;;;;4975638;28;20049;-70
2023/07/13 07:45:11;;;;;;;5.70;2.50;;;;;;;;;;4975353;28;20395;-70
2023/07/13 07:47:36;;;;;;;6.53;2.72;;;;;;;;;;4975586;28;20031;-70
2023/07/13 07:50:02;;;;;;;5.82;2.10;;;;;;;;;;4973872;28;20050;-70
2023/07/13 07:52:27;;;;;;;6.45;2.30;;;;;;;;;;4974090;28;20146;-70
2023/07/13 07:54:52;;;;;;;5.15;2.22;;;;;;;;;;4975092;28;20394;-70
2023/07/13 07:57:18;;;;;;;11.68;2.35;;;;;;;;;;4975215;28;20050;-71
2023/07/13 07:59:43;;;;;;;4.53;1.65;;;;;;;;;;4936785;28;1117018;-71
2023/07/13 08:02:10;;;;;;;6.82;1.83;;;;;;;;;;4976238;28;20121;-71
2023/07/13 08:04:35;;;;;;;6.15;1.52;;;;;;;;;;4974606;28;20041;-70
2023/07/13 08:07:02;;;;;;;4.82;1.73;;;;;;;;;;4970768;28;20111;-70
2023/07/13 08:09:28;;;;;;;5.50;1.98;;;;;;;;;;4973864;28;20050;-71
2023/07/13 08:11:54;;;;;;;5.57;1.90;;;;;;;;;;4975854;28;20038;-71
2023/07/13 08:14:19;;;;;;;13.38;5.53;;;;;;;;;;4974704;28;20097;-71
2023/07/13 08:16:45;;;;;;;9.27;2.40;;;;;;;;;;4976112;28;20118;-71
2023/07/13 08:19:11;;;;;;;7.05;2.53;;;;;;;;;;4970088;28;20034;-71
2023/07/13 08:21:36;;;;;;;5.28;2.00;;;;;;;;;;4975402;28;20031;-71
2023/07/13 08:24:02;;;;;;;5.25;2.00;;;;;;;;;;4969282;28;20039;-71
2023/07/13 08:26:27;;;;;;;3.65;1.73;;;;;;;;;;4974760;28;20047;-71
2023/07/13 08:28:53;;;;;;;4.68;1.80;;;;;;;;;;4975223;28;20039;-70
2023/07/13 08:31:18;;;;;;;5.53;2.08;;;;;;;;;;4974423;28;20053;-71
2023/07/13 08:33:43;;;;;;;3.83;1.90;;;;;;;;;;4974349;28;20121;-71
2023/07/13 08:36:09;;;;;;;4.38;1.70;;;;;;;;;;4973542;28;20042;-71
2023/07/13 08:38:34;;;;;;;5.75;1.90;;;;;;;;;;4968905;28;20097;-70
2023/07/13 08:41:09;;;;;;;7.22;2.97;;;;;;;;;;4972923;28;20448;-70
2023/07/13 08:43:36;;;;;;;3.40;1.77;;;;;;;;;;5000223;28;20035;-70
2023/07/13 08:46:09;;;;;;;5.85;1.70;;;;;;;;;;4973166;28;20039;-70
2023/07/13 08:48:58;;;;;;;6.20;1.80;;;;;;;;;;4973120;28;20483;-71
2023/07/13 08:51:39;;;;;;;5.82;1.80;;;;;;;;;;4951340;28;20101;-70
2023/07/13 08:54:38;;;;;;;6.28;1.70;;;;;;;;;;4972013;28;20046;-70
2023/07/13 08:57:13;;;;;;;8.90;1.60;;;;;;;;;;4970217;28;20055;-70
2023/07/13 08:59:39;;;;;;;6.90;2.05;;;;;;;;;;4970154;28;20050;-70
2023/07/13 09:02:25;;;;;;;5.03;1.48;;;;;;;;;;4971197;28;20039;-70
2023/07/13 09:04:54;;;;;;;6.70;2.08;;;;;;;;;;4968754;28;20039;-70
2023/07/13 09:07:34;;;;;;;5.07;1.50;;;;;;;;;;4969810;28;20118;-70
2023/07/13 09:10:15;;;;;;;6.18;1.50;;;;;;;;;;4969414;28;20553;-70
2023/07/13 09:12:52;;;;;;;5.55;1.70;;;;;;;;;;4956076;28;20185;-70
2023/07/13 09:15:27;;;;;;;6.40;1.65;;;;;;;;;;4969733;28;20087;-70
2023/07/13 09:17:55;;;;;;;4.00;1.30;;;;;;;;;;4970884;28;20133;-70
2023/07/13 09:20:27;;;;;;;5.75;1.30;;;;;;;;;;4970025;28;20037;-70
2023/07/13 09:22:52;;;;;;;3.30;1.20;;;;;;;;;;4964626;28;20121;-70
2023/07/13 09:25:31;;;;;;;9.32;1.60;;;;;;;;;;4966212;28;20526;-70
2023/07/13 09:28:00;;;;;;;4.82;1.33;;;;;;;;;;4967577;28;20047;-70
2023/07/13 09:30:31;;;;;;;5.35;1.35;;;;;;;;;;4967646;28;20114;-70
2023/07/13 09:32:58;;;;;;;5.20;1.30;;;;;;;;;;4971111;28;20137;-70
2023/07/13 09:35:27;;;;;;;7.65;1.38;;;;;;;;;;4961853;28;20041;-70
2023/07/13 09:37:57;;;;;;;2.08;1.00;;;;;;;;;;4969508;28;20038;-70
2023/07/13 09:40:44;;;;;;;4.38;1.17;;;;;;;;;;4964942;28;20558;-70
2023/07/13 09:43:14;;;;;;;2.42;1.08;;;;;;;;;;4967504;28;20047;-70
2023/07/13 09:45:39;;;;;;;2.30;1.00;;;;;;;;;;4968534;28;20034;-71
2023/07/13 09:48:10;;;;;;;4.43;1.33;;;;;;;;;;4969855;28;20042;-71
2023/07/13 09:50:35;;;;;;;6.20;1.40;;;;;;;;;;4968580;28;20482;-70
2023/07/13 09:53:01;;;;;;;4.70;1.17;;;;;;;;;;4970272;28;20030;-70
2023/07/13 09:55:38;;;;;;;7.40;1.30;;;;;;;;;;4970150;28;20069;-70
2023/07/13 09:58:19;;;;;;;4.93;1.25;;;;;;;;;;4968466;28;20066;-71
2023/07/13 10:00:57;;;;;;;3.15;1.20;;;;;;;;;;4963999;28;20127;-70
2023/07/13 10:03:27;;;;;;;7.32;1.63;;;;;;;;;;4966040;28;20065;-70
2023/07/13 10:05:53;;;;;;;4.15;1.00;;;;;;;;;;4969461;28;20118;-70
2023/07/13 10:08:25;;;;;;;4.53;1.23;;;;;;;;;;4969460;28;20039;-70
2023/07/13 10:10:57;;;;;;;7.60;1.30;;;;;;;;;;4968312;28;20074;-70
2023/07/13 10:13:55;;;;;;;4.95;1.10;;;;;;;;;;4969920;28;20055;-71
2023/07/13 10:16:22;;;;;;;2.28;0.77;;;;;;;;;;4963109;28;20051;-70
2023/07/13 10:18:54;;;;;;;6.30;1.92;;;;;;;;;;4969533;28;20130;-70
2023/07/13 10:21:21;;;;;;;2.67;1.10;;;;;;;;;;4966015;28;20554;-71
2023/07/13 10:23:50;;;;;;;3.40;1.25;;;;;;;;;;4969755;28;20050;-70
2023/07/13 10:26:21;;;;;;;10.88;1.10;;;;;;;;;;4966957;28;20113;-70
2023/07/13 10:28:51;;;;;;;7.78;1.40;;;;;;;;;;4969671;28;20058;-70
2023/07/13 10:31:17;;;;;;;6.28;0.93;;;;;;;;;;4969716;28;20101;-70
2023/07/13 10:33:42;;;;;;;3.72;1.20;;;;;;;;;;4967620;28;20037;-71
2023/07/13 10:36:23;;;;;;;3.83;1.20;;;;;;;;;;4969292;28;20046;-70
2023/07/13 10:38:50;;;;;;;3.20;0.85;;;;;;;;;;4966486;28;20046;-70
2023/07/13 10:41:18;;;;;;;7.13;1.15;;;;;;;;;;4969162;28;20061;-70
2023/07/13 10:43:46;;;;;;;4.10;1.23;;;;;;;;;;4967140;28;20192;-70
2023/07/13 10:46:14;;;;;;;5.72;1.00;;;;;;;;;;4967740;28;20034;-70
2023/07/13 10:48:42;;;;;;;5.20;1.20;;;;;;;;;;4968450;28;20052;-70
2023/07/13 10:51:10;;;;;;;5.20;1.20;;;;;;;;;;4962021;28;20046;-70
2023/07/13 10:53:37;;;;;;;6.75;1.30;;;;;;;;;;4967003;28;20550;-70
2023/07/13 10:56:19;;;;;;;5.50;1.33;;;;;;;;;;4973172;28;20121;-70
2023/07/13 10:58:45;;;;;;;5.72;1.58;;;;;;;;;;4971883;28;20038;-70
2023/07/13 11:01:15;;;;;;;3.78;1.20;;;;;;;;;;4971651;28;20055;-70
2023/07/13 11:03:43;;;;;;;6.10;1.30;;;;;;;;;;4971602;28;20490;-70
2023/07/13 11:06:22;;;;;;;6.25;1.30;;;;;;;;;;4972621;28;20046;-70
2023/07/13 11:08:47;;;;;;;6.38;2.20;;;;;;;;;;4972847;28;20074;-70
2023/07/13 11:11:32;;;;;;;7.35;1.70;;;;;;;;;;4972067;28;20066;-70
2023/07/13 11:14:02;;;;;;;3.70;1.23;;;;;;;;;;4971507;28;20555;-70
2023/07/13 11:16:44;;;;;;;3.63;1.30;;;;;;;;;;4972703;28;20030;-70
2023/07/13 11:19:15;;;;;;;4.05;1.00;;;;;;;;;;4971730;28;20039;-70
2023/07/13 11:22:12;;;;;;;5.90;1.27;;;;;;;;;;4952290;28;20050;-70
2023/07/13 11:24:51;;;;;;;12.18;5.05;;;;;;;;;;4965121;28;20047;-70
2023/07/13 11:27:44;;;;;;;29.70;12.23;;;;;;;;;;4964940;28;20035;-70
2023/07/13 11:30:25;;;;;;;28.42;13.38;;;;;;;;;;4971078;28;20031;-70
2023/07/13 11:33:19;;;;;;;13.13;5.20;;;;;;;;;;4972371;28;20432;-70
2023/07/13 11:35:58;;;;;;;19.08;7.93;;;;;;;;;;4972324;28;20045;-69
2023/07/13 11:38:30;;;;;;;14.85;7.05;;;;;;;;;;4965249;28;20035;-70
2023/07/13 11:40:56;;;;;;;13.50;5.80;;;;;;;;;;4955097;28;20046;-70
2023/07/13 11:43:25;;;;;;;8.93;4.47;;;;;;;;;;4972047;28;20515;-70
2023/07/13 11:45:50;;;;;;;6.13;2.97;;;;;;;;;;4971482;28;20109;-70
2023/07/13 11:48:25;;;;;;;8.10;2.80;;;;;;;;;;4970829;28;20121;-70
2023/07/13 11:50:58;;;;;;;10.52;2.10;;;;;;;;;;4971097;28;20483;-70
2023/07/13 11:53:29;;;;;;;8.20;1.50;;;;;;;;;;4966840;28;20484;-70
2023/07/13 11:55:56;;;;;;;4.47;1.50;;;;;;;;;;4970441;28;20039;-70
2023/07/13 11:58:24;;;;;;;6.43;1.70;;;;;;;;;;4972048;28;20054;-70
2023/07/13 12:00:51;;;;;;;4.25;1.55;;;;;;;;;;4969899;28;20442;-70
2023/07/13 12:03:20;;;;;;;2.95;1.50;;;;;;;;;;4970277;28;20038;-70
2023/07/13 12:06:00;;;;;;;6.88;2.15;;;;;;;;;;4966403;28;20054;-70
2023/07/13 12:08:26;;;;;;;3.83;1.70;;;;;;;;;;4971784;28;20081;-70
2023/07/13 12:11:06;;;;;;;4.47;1.88;;;;;;;;;;4971183;28;20046;-69
2023/07/13 12:13:37;;;;;;;8.52;1.90;;;;;;;;;;4970577;28;20068;-70
2023/07/13 12:16:32;;;;;;;3.80;1.80;;;;;;;;;;4968284;28;20042;-70
2023/07/13 12:18:59;;;;;;;9.27;2.20;;;;;;;;;;4962117;28;20465;-70
2023/07/13 12:21:38;;;;;;;5.68;2.25;;;;;;;;;;4970163;28;20042;-70
2023/07/13 12:24:05;;;;;;;5.95;1.98;;;;;;;;;;4970277;28;20383;-70
2023/07/13 12:26:31;;;;;;;3.60;2.10;;;;;;;;;;4969498;28;20043;-70
2023/07/13 12:28:59;;;;;;;4.43;1.80;;;;;;;;;;4971509;28;20442;-70
2023/07/13 12:31:33;;;;;;;5.43;2.10;;;;;;;;;;4971790;28;20448;-69
2023/07/13 12:33:58;;;;;;;6.95;2.50;;;;;;;;;;4972363;28;20091;-70
2023/07/13 12:36:24;;;;;;;5.60;2.28;;;;;;;;;;4971524;28;20435;-69
2023/07/13 12:38:49;;;;;;;9.85;2.30;;;;;;;;;;4970439;28;20038;-70
2023/07/13 12:41:15;;;;;;;7.55;1.90;;;;;;;;;;4970967;28;20050;-70
2023/07/13 12:43:40;;;;;;;6.20;2.20;;;;;;;;;;4971487;28;20398;-69
2023/07/13 12:46:16;;;;;;;7.40;2.33;;;;;;;;;;4970396;28;20062;-70
2023/07/13 12:48:42;;;;;;;6.30;1.98;;;;;;;;;;4971409;28;20035;-70
2023/07/13 12:51:14;;;;;;;5.07;1.98;;;;;;;;;;4970887;28;20064;-71
2023/07/13 12:53:48;;;;;;;7.50;2.17;;;;;;;;;;4966247;28;20039;-71
2023/07/13 12:56:19;;;;;;;5.85;2.33;;;;;;;;;;4964522;28;20700;-70
2023/07/13 12:58:48;;;;;;;4.55;2.20;;;;;;;;;;4957725;28;20062;-71
2023/07/13 13:01:14;;;;;;;4.88;2.10;;;;;;;;;;4964166;28;20046;-71
2023/07/13 13:03:45;;;;;;;5.05;1.85;;;;;;;;;;4970780;28;20042;-71
2023/07/13 13:06:18;;;;;;;3.83;2.00;;;;;;;;;;4970453;28;20035;-71
2023/07/13 13:08:44;;;;;;;7.00;2.17;;;;;;;;;;4970416;28;20043;-71
2023/07/13 13:11:10;;;;;;;6.43;1.95;;;;;;;;;;4970342;28;20042;-71
2023/07/13 13:13:35;;;;;;;8.45;1.73;;;;;;;;;;4971340;28;20043;-71
2023/07/13 13:16:37;;;;;;;3.42;1.90;;;;;;;;;;4970530;28;20053;-71
2023/07/13 13:19:26;;;;;;;4.97;1.70;;;;;;;;;;4968487;28;20086;-71
2023/07/13 13:21:54;;;;;;;3.00;1.30;;;;;;;;;;4968890;28;20487;-71
2023/07/13 13:24:22;;;;;;;5.93;1.30;;;;;;;;;;4962631;28;20031;-71
2023/07/13 13:26:50;;;;;;;3.42;1.20;;;;;;;;;;4971434;28;20114;-71
2023/07/13 13:29:16;;;;;;;4.03;1.10;;;;;;;;;;4970574;28;20137;-71
2023/07/13 13:31:42;;;;;;;3.28;1.20;;;;;;;;;;4974008;28;20034;-71
2023/07/13 13:34:10;;;;;;;5.97;1.52;;;;;;;;;;4970498;28;20089;-71
2023/07/13 13:36:35;;;;;;;2.47;1.30;;;;;;;;;;4970207;28;20101;-70
2023/07/13 13:39:01;;;;;;;4.97;1.25;;;;;;;;;;4960544;28;20042;-70
2023/07/13 13:41:27;;;;;;;7.32;1.25;;;;;;;;;;4966580;28;20047;-71
2023/07/13 13:43:53;;;;;;;5.35;1.25;;;;;;;;;;4968500;28;20145;-71
2023/07/13 13:46:20;;;;;;;2.45;0.93;;;;;;;;;;4968926;28;20027;-71
2023/07/13 13:48:46;;;;;;;4.18;1.10;;;;;;;;;;4968911;28;20046;-71
2023/07/13 13:51:16;;;;;;;4.43;1.10;;;;;;;;;;4968214;28;20035;-71
2023/07/13 13:53:42;;;;;;;2.25;0.98;;;;;;;;;;4970128;28;20062;-71
2023/07/13 13:56:08;;;;;;;3.13;1.30;;;;;;;;;;4968031;28;20077;-71
2023/07/13 13:58:33;;;;;;;3.65;1.52;;;;;;;;;;4962541;28;20035;-71
2023/07/13 14:00:58;;;;;;;2.83;1.10;;;;;;;;;;4969675;28;20047;-71
2023/07/13 14:03:24;;;;;;;3.22;1.17;;;;;;;;;;4967637;28;20051;-71
2023/07/13 14:05:50;;;;;;;3.28;1.30;;;;;;;;;;4966804;28;20043;-71
2023/07/13 14:08:18;;;;;;;4.90;1.50;;;;;;;;;;4970463;28;20110;-71
2023/07/13 14:10:45;;;;;;;5.68;1.60;;;;;;;;;;4956360;28;20066;-71
2023/07/13 14:13:18;;;;;;;6.38;1.63;;;;;;;;;;4968255;28;20112;-71
2023/07/13 14:15:43;;;;;;;;;;;;;;;;;;4950080;28;20051;-71
2023/07/13 14:18:09;;;;;;;5.50;1.30;;;;;;;;;;4966193;28;20386;-71
2023/07/13 14:20:34;;;;;;;6.50;1.30;;;;;;;;;;4970010;28;20475;-71
2023/07/13 14:23:00;;;;;;;4.82;1.40;;;;;;;;;;4966250;28;20039;-70
2023/07/13 14:25:25;;;;;;;3.00;1.38;;;;;;;;;;4968621;28;20139;-71
2023/07/13 14:27:55;;;;;;;6.50;1.20;;;;;;;;;;4969032;28;20042;-71
2023/07/13 14:30:22;;;;;;;5.05;1.52;;;;;;;;;;4972853;28;20039;-71
2023/07/13 14:32:49;;;;;;;2.47;1.10;;;;;;;;;;4972927;28;20502;-71
2023/07/13 14:35:15;;;;;;;4.57;1.30;;;;;;;;;;4971912;28;20177;-71
2023/07/13 14:37:42;;;;;;;3.28;1.30;;;;;;;;;;4971773;28;20050;-71
2023/07/13 14:40:15;;;;;;;6.60;1.40;;;;;;;;;;4972498;28;20022;-71
2023/07/13 14:42:40;;;;;;;4.95;1.95;;;;;;;;;;4972472;28;20475;-70